Terminal Aerodrome Forecast
Issued by NWS

Home | Current Version | Previous Version | Text Only | Print | Product List | Glossary On
Versions: 1 2 3 4 5 6 7 8 9 10 11 12
233
FTUS42 KMLB 262340
TAFSFB
TAF
KSFB 262340Z 2700/2724 11008KT P6SM SCT040
     FM270200 11003KT P6SM SKC
     FM270800 VRB01KT 6SM BR FEW040
     FM271400 11006KT P6SM FEW040 SCT250=

USA.gov is the U.S. government's official web portal to all federal, state and local government web resources and services.